createdAt,value
2023-03-06T00:03:18.685Z,80.59
2023-03-06T00:08:21.515Z,80.52
2023-03-06T00:13:24.964Z,79.35
2023-03-06T00:18:29.102Z,80.84
2023-03-06T00:23:32.099Z,79.30
2023-03-06T00:28:34.890Z,78.88
2023-03-06T00:33:38.959Z,81.40
2023-03-06T00:38:41.676Z,80.49
2023-03-06T00:43:44.756Z,81.18
2023-03-06T00:48:49.151Z,82.42
2023-03-06T00:53:51.910Z,83.69
2023-03-06T00:58:54.656Z,85.78
2023-03-06T01:03:59.116Z,87.41
2023-03-06T01:09:01.867Z,87.41
2023-03-06T01:14:04.707Z,88.03
2023-03-06T01:19:08.795Z,87.58
2023-03-06T01:24:11.966Z,88.31
2023-03-06T01:29:14.774Z,89.15
2023-03-06T01:34:18.879Z,88.15
2023-03-06T01:39:21.645Z,88.64
2023-03-06T01:44:24.389Z,88.66
2023-03-06T01:49:32.466Z,91.02
2023-03-06T01:54:39.124Z,92.05
2023-03-06T01:59:43.588Z,91.31
2023-03-06T02:04:48.825Z,88.86
2023-03-06T02:09:51.571Z,89.35
2023-03-06T02:14:54.778Z,91.48
2023-03-06T02:20:08.436Z,90.77
2023-03-06T02:25:24.654Z,90.63
2023-03-06T02:30:28.979Z,92.49
2023-03-06T02:35:33.687Z,93.18
2023-03-06T02:40:38.055Z,92.51
2023-03-06T02:45:45.184Z,89.89
2023-03-06T02:50:48.884Z,88.59
2023-03-06T02:55:53.074Z,86.95
2023-03-06T03:00:57.010Z,88.40
2023-03-06T03:05:59.860Z,87.59
2023-03-06T03:11:09.165Z,84.20
2023-03-06T03:16:16.441Z,84.45
2023-03-06T03:21:19.795Z,84.90
2023-03-06T03:26:25.631Z,84.89
2023-03-06T03:31:57.345Z,83.07
2023-03-06T03:37:01.996Z,84.62
2023-03-06T03:42:06.782Z,85.33
2023-03-06T03:47:09.731Z,83.97
2023-03-06T03:52:12.705Z,85.98
2023-03-06T03:57:17.869Z,87.16
2023-03-06T04:02:26.119Z,88.95
2023-03-06T04:07:54.836Z,88.84
2023-03-06T04:12:59.015Z,89.60
2023-03-06T04:18:03.252Z,88.32
2023-03-06T04:23:06.361Z,87.75
2023-03-06T04:28:12.195Z,86.91
2023-03-06T04:33:15.720Z,88.02
2023-03-06T04:38:19.409Z,85.45
2023-03-06T04:43:23.730Z,85.53
2023-03-06T04:48:26.411Z,86.40
2023-03-06T04:53:29.355Z,86.92
2023-03-06T04:58:33.599Z,87.41
2023-03-06T05:03:36.365Z,88.00
2023-03-06T05:08:39.157Z,87.13
2023-03-06T05:13:43.401Z,87.71
2023-03-06T05:18:46.103Z,88.14
2023-03-06T05:23:48.848Z,87.58
2023-03-06T05:28:53.800Z,88.22
2023-03-06T05:33:58.275Z,87.89
2023-03-06T05:39:01.108Z,87.15
2023-03-06T05:44:05.216Z,88.02
2023-03-06T05:49:08.196Z,89.24
2023-03-06T05:54:10.947Z,87.33
2023-03-06T05:59:15.629Z,86.59
2023-03-06T06:04:18.424Z,87.35
2023-03-06T06:09:22.374Z,86.89
2023-03-06T06:14:26.873Z,88.98
2023-03-06T06:19:30.665Z,87.69
2023-03-06T06:24:33.804Z,88.09
2023-03-06T06:29:38.337Z,88.37
2023-03-06T06:34:41.048Z,87.88
2023-03-06T06:39:43.762Z,85.92
2023-03-06T06:44:47.877Z,85.11
2023-03-06T06:49:51.309Z,85.72
2023-03-06T06:54:54.260Z,84.09
2023-03-06T06:59:58.370Z,86.07
2023-03-06T07:05:04.535Z,83.19
2023-03-06T07:10:13.220Z,83.13
2023-03-06T07:15:18.118Z,84.09
2023-03-06T07:20:21.187Z,83.74
2023-03-06T07:25:23.919Z,85.12
2023-03-06T07:30:28.104Z,83.69
2023-03-06T07:35:31.196Z,82.65
2023-03-06T07:40:34.032Z,83.46
2023-03-06T07:45:38.297Z,84.16
2023-03-06T07:50:41.841Z,84.86
2023-03-06T07:55:44.616Z,83.63
2023-03-06T08:00:48.901Z,80.56
2023-03-06T08:05:51.710Z,78.58
2023-03-06T08:10:54.518Z,78.63
2023-03-06T08:15:59.762Z,81.13
2023-03-06T08:21:04.106Z,79.50
2023-03-06T08:26:08.255Z,76.94
2023-03-06T08:31:14.590Z,74.59
2023-03-06T08:36:17.553Z,74.24
2023-03-06T08:41:21.027Z,74.47
2023-03-06T08:46:27.285Z,71.89
2023-03-06T08:51:30.167Z,75.58
2023-03-06T08:56:35.253Z,76.29
2023-03-06T09:01:39.688Z,72.56
2023-03-06T09:06:44.065Z,74.99
2023-03-06T09:11:46.928Z,76.72
2023-03-06T09:16:51.068Z,74.30
2023-03-06T09:21:54.059Z,72.46
2023-03-06T09:26:56.834Z,69.82
2023-03-06T09:32:01.164Z,72.44
2023-03-06T09:37:04.157Z,69.75
2023-03-06T09:42:12.139Z,69.47
2023-03-06T09:47:36.137Z,73.20
2023-03-06T09:52:46.961Z,66.24
2023-03-06T09:57:55.859Z,68.71
2023-03-06T10:03:11.407Z,65.89
2023-03-06T10:08:22.435Z,63.30
2023-03-06T10:13:29.476Z,66.71
2023-03-06T10:18:38.305Z,65.48
2023-03-06T10:23:51.304Z,66.65
2023-03-06T10:29:06.327Z,66.62
2023-03-06T10:34:21.895Z,69.00
2023-03-06T10:39:24.649Z,63.63
2023-03-06T10:44:27.370Z,62.35
2023-03-06T10:49:34.744Z,58.31
2023-03-06T10:54:40.136Z,56.41
2023-03-06T10:59:52.523Z,60.67
2023-03-06T11:04:58.266Z,57.94
2023-03-06T11:10:06.100Z,58.37
2023-03-06T11:15:18.411Z,60.93
2023-03-06T11:20:25.079Z,63.18
2023-03-06T11:25:33.407Z,60.02
2023-03-06T11:30:45.140Z,54.52
2023-03-06T11:35:58.386Z,51.54
2023-03-06T11:41:06.830Z,53.11
2023-03-06T11:46:15.100Z,55.15
2023-03-06T11:51:25.739Z,53.15
2023-03-06T11:56:37.347Z,51.65
2023-03-06T12:01:48.363Z,50.02
2023-03-06T12:07:03.198Z,48.40
2023-03-06T12:12:23.194Z,46.86
2023-03-06T12:17:35.084Z,47.87
2023-03-06T12:22:57.496Z,48.16
2023-03-06T12:28:23.160Z,47.13
2023-03-06T12:33:33.667Z,48.19
2023-03-06T12:38:52.991Z,48.89
2023-03-06T12:44:28.459Z,49.30
2023-03-06T12:49:34.523Z,49.47
2023-03-06T12:54:42.073Z,50.48
2023-03-06T12:59:47.899Z,49.55
2023-03-06T13:05:23.191Z,49.81
2023-03-06T13:10:31.607Z,51.86
2023-03-06T13:15:45.809Z,52.40
2023-03-06T13:20:50.151Z,51.81
2023-03-06T13:25:54.351Z,50.34
2023-03-06T13:30:57.143Z,51.32
2023-03-06T13:36:00.681Z,51.34
2023-03-06T13:41:50.996Z,49.81
2023-03-06T13:47:00.689Z,48.03
2023-03-06T13:52:09.524Z,47.57
2023-03-06T13:57:38.427Z,47.64
2023-03-06T14:02:56.746Z,50.34
2023-03-06T14:08:12.788Z,50.56
2023-03-06T14:13:19.614Z,51.09
2023-03-06T14:18:26.288Z,48.92
2023-03-06T14:23:32.201Z,48.74
2023-03-06T14:28:36.567Z,49.23
2023-03-06T14:33:45.189Z,49.13
2023-03-06T14:38:50.871Z,48.04
2023-03-06T14:43:54.060Z,49.37
2023-03-06T14:49:00.199Z,49.69
2023-03-06T14:54:03.732Z,49.73
2023-03-06T14:59:09.653Z,50.32
2023-03-06T15:04:21.120Z,52.95
2023-03-06T15:09:28.738Z,51.69
2023-03-06T15:14:35.410Z,50.49
2023-03-06T15:19:41.384Z,50.15
2023-03-06T15:24:44.122Z,49.47
2023-03-06T15:29:46.869Z,49.77
2023-03-06T15:35:30.612Z,48.85
2023-03-06T15:40:33.580Z,49.12
2023-03-06T15:45:36.463Z,48.47
2023-03-06T15:50:40.651Z,49.69
2023-03-06T15:55:43.745Z,49.10
2023-03-06T16:00:46.590Z,48.54
2023-03-06T16:05:50.681Z,48.74
2023-03-06T16:10:53.393Z,49.58
2023-03-06T16:15:57.079Z,49.45
2023-03-06T16:21:01.146Z,50.46
2023-03-06T16:26:04.225Z,51.50
2023-03-06T16:31:06.952Z,51.44
2023-03-06T16:36:16.567Z,51.01
2023-03-06T16:41:20.698Z,51.41
2023-03-06T16:46:26.219Z,51.88
2023-03-06T16:51:40.740Z,53.58
2023-03-06T16:56:43.832Z,54.11
2023-03-06T17:01:46.792Z,55.01
2023-03-06T17:06:52.749Z,54.83
2023-03-06T17:11:55.752Z,55.78
2023-03-06T17:16:58.723Z,55.73
2023-03-06T17:22:02.873Z,55.44
2023-03-06T17:27:05.701Z,56.81
2023-03-06T17:32:09.144Z,56.29
2023-03-06T17:37:13.313Z,55.51
2023-03-06T17:42:16.645Z,55.80
2023-03-06T17:47:19.534Z,56.74
2023-03-06T17:52:23.692Z,54.69
2023-03-06T17:57:26.516Z,55.05
2023-03-06T18:02:29.272Z,55.68
2023-03-06T18:07:33.360Z,53.99
2023-03-06T18:12:36.072Z,53.38
2023-03-06T18:17:38.881Z,52.79
2023-03-06T18:22:42.938Z,53.33
2023-03-06T18:27:45.693Z,52.54
2023-03-06T18:32:48.466Z,52.97
2023-03-06T18:37:53.030Z,52.95
2023-03-06T18:42:55.882Z,53.20
2023-03-06T18:47:58.619Z,53.32
2023-03-06T18:53:02.769Z,52.67
2023-03-06T18:58:05.516Z,53.30
2023-03-06T19:03:08.367Z,52.90
2023-03-06T19:08:13.426Z,52.28
2023-03-06T19:13:16.452Z,52.02
2023-03-06T19:18:19.383Z,50.71
2023-03-06T19:23:24.763Z,51.13
2023-03-06T19:28:28.324Z,50.81
2023-03-06T19:33:31.126Z,50.90
2023-03-06T19:38:35.419Z,51.04
2023-03-06T19:43:38.355Z,51.10
2023-03-06T19:48:41.419Z,51.57
2023-03-06T19:53:45.502Z,52.25
2023-03-06T19:58:48.914Z,52.75
2023-03-06T20:03:58.283Z,53.10
2023-03-06T20:09:04.162Z,53.56
2023-03-06T20:14:08.641Z,53.63
2023-03-06T20:19:12.006Z,54.37
2023-03-06T20:24:17.985Z,54.74
2023-03-06T20:29:20.793Z,56.00
2023-03-06T20:34:24.189Z,55.95
2023-03-06T20:39:28.314Z,57.60
2023-03-06T20:44:31.380Z,57.92
2023-03-06T20:49:34.334Z,58.81
2023-03-06T20:54:38.430Z,58.01
2023-03-06T20:59:41.249Z,58.26
2023-03-06T21:04:44.310Z,59.08
2023-03-06T21:09:49.740Z,59.44
2023-03-06T21:14:52.618Z,57.92
2023-03-06T21:19:55.403Z,57.76
2023-03-06T21:24:59.510Z,58.42
2023-03-06T21:30:02.272Z,57.44
2023-03-06T21:35:05.286Z,56.16
2023-03-06T21:40:11.246Z,55.83
2023-03-06T21:45:14.048Z,55.48
2023-03-06T21:50:16.868Z,55.36
2023-03-06T21:55:21.116Z,55.43
2023-03-06T22:00:25.773Z,55.58
2023-03-06T22:05:28.614Z,55.83
2023-03-06T22:10:32.791Z,56.11
2023-03-06T22:15:35.510Z,56.92
2023-03-06T22:20:40.365Z,57.41
2023-03-06T22:25:44.486Z,56.90
2023-03-06T22:30:47.317Z,57.84
2023-03-06T22:35:50.291Z,57.63
2023-03-06T22:40:57.339Z,59.14
2023-03-06T22:46:02.053Z,64.11
2023-03-06T22:51:05.933Z,66.47
2023-03-06T22:56:12.820Z,69.18
2023-03-06T23:01:17.764Z,71.10
2023-03-06T23:06:22.694Z,73.09
2023-03-06T23:11:27.945Z,73.44
2023-03-06T23:16:49.001Z,75.95
2023-03-06T23:22:10.616Z,77.17
2023-03-06T23:27:33.320Z,78.30
2023-03-06T23:32:36.219Z,79.39
2023-03-06T23:37:38.964Z,80.64
2023-03-06T23:42:43.264Z,80.64
2023-03-06T23:47:46.024Z,83.24
2023-03-06T23:52:48.904Z,86.34
2023-03-06T23:57:53.001Z,81.11
